createdAt,value
2022-08-27T00:00:00.683Z,97927.84
2022-08-27T00:02:04.161Z,97928.00
2022-08-27T00:04:07.400Z,97927.38
2022-08-27T00:06:14.038Z,97924.06
2022-08-27T00:08:17.166Z,97926.72
2022-08-27T00:10:22.365Z,97921.41
2022-08-27T00:12:25.442Z,97913.28
2022-08-27T00:14:29.621Z,97917.56
2022-08-27T00:16:32.774Z,97914.75
2022-08-27T00:18:37.013Z,97914.91
2022-08-27T00:20:40.060Z,97911.44
2022-08-27T00:22:44.488Z,97908.97
2022-08-27T00:24:49.000Z,97906.47
2022-08-27T00:26:53.777Z,97915.25
2022-08-27T00:28:56.782Z,97912.59
2022-08-27T00:30:59.968Z,97906.47
2022-08-27T00:33:05.223Z,97910.13
2022-08-27T00:35:09.526Z,97906.47
2022-08-27T00:37:12.825Z,97910.13
2022-08-27T00:39:17.268Z,97911.16
2022-08-27T00:41:21.149Z,97916.63
2022-08-27T00:43:24.551Z,97922.94
2022-08-27T00:45:27.549Z,97919.47
2022-08-27T00:47:33.229Z,97919.47
2022-08-27T00:49:41.538Z,97915.78
2022-08-27T00:51:45.016Z,97922.78
2022-08-27T00:53:53.148Z,97919.13
2022-08-27T00:56:00.035Z,97923.41
2022-08-27T00:58:07.205Z,97925.72
2022-08-27T01:00:14.838Z,97915.94
2022-08-27T01:02:20.761Z,97922.88
2022-08-27T01:04:24.007Z,97920.03
2022-08-27T01:06:37.503Z,97920.03
2022-08-27T01:08:43.765Z,97918.25
2022-08-27T01:10:47.887Z,97919.88
2022-08-27T01:12:54.155Z,97915.22
2022-08-27T01:14:57.374Z,97915.06
2022-08-27T01:17:01.603Z,97911.38
2022-08-27T01:19:05.783Z,97909.56
2022-08-27T01:21:12.765Z,97913.69
2022-08-27T01:23:20.130Z,97909.03
2022-08-27T01:25:26.070Z,97907.38
2022-08-27T01:27:31.581Z,97910.84
2022-08-27T01:29:34.690Z,97911.88
2022-08-27T01:31:38.277Z,97906.56
2022-08-27T01:33:42.102Z,97917.00
2022-08-27T01:35:48.430Z,97918.63
2022-08-27T01:37:53.608Z,97917.00
2022-08-27T01:39:59.925Z,97915.34
2022-08-27T01:42:05.698Z,97915.34
2022-08-27T01:44:08.715Z,97923.94
2022-08-27T01:46:11.763Z,97920.81
2022-08-27T01:48:15.012Z,97923.31
2022-08-27T01:50:21.147Z,97916.34
2022-08-27T01:52:26.335Z,97912.03
2022-08-27T01:54:29.494Z,97912.41
2022-08-27T01:56:32.521Z,97907.91
2022-08-27T01:58:37.104Z,97915.06
2022-08-27T02:00:42.520Z,97912.56
2022-08-27T02:02:45.669Z,97912.56
2022-08-27T02:04:50.387Z,97914.75
2022-08-27T02:06:53.384Z,97914.09
2022-08-27T02:08:56.355Z,97914.28
2022-08-27T02:10:59.487Z,97911.78
2022-08-27T02:13:02.894Z,97908.16
2022-08-27T02:15:08.703Z,97902.47
2022-08-27T02:17:12.369Z,97897.00
2022-08-27T02:19:16.451Z,97903.75
2022-08-27T02:21:19.569Z,97903.59
2022-08-27T02:23:22.560Z,97900.13
2022-08-27T02:25:27.671Z,97894.81
2022-08-27T02:27:34.043Z,97894.16
2022-08-27T02:29:37.072Z,97887.84
2022-08-27T02:31:42.168Z,97889.50
2022-08-27T02:33:45.308Z,97892.78
2022-08-27T02:35:48.416Z,97900.75
2022-08-27T02:37:51.669Z,97900.75
2022-08-27T02:39:54.850Z,97891.44
2022-08-27T02:41:57.830Z,97891.25
2022-08-27T02:44:01.396Z,97891.91
2022-08-27T02:46:05.308Z,97898.88
2022-08-27T02:48:10.603Z,97895.22
2022-08-27T02:50:14.508Z,97897.88
2022-08-27T02:52:17.594Z,97892.75
2022-08-27T02:54:28.317Z,97899.06
2022-08-27T02:56:31.868Z,97894.72
2022-08-27T02:58:34.981Z,97900.88
2022-08-27T03:00:38.038Z,97896.41
2022-08-27T03:02:41.481Z,97899.22
2022-08-27T03:04:46.360Z,97906.38
2022-08-27T03:06:49.711Z,97910.84
2022-08-27T03:08:53.593Z,97910.03
2022-08-27T03:10:57.736Z,97914.16
2022-08-27T03:13:00.730Z,97905.34
2022-08-27T03:15:04.312Z,97901.06
2022-08-27T03:17:21.255Z,97901.44
2022-08-27T03:19:24.560Z,97900.13
2022-08-27T03:21:29.164Z,97908.25
2022-08-27T03:23:33.920Z,97910.44
2022-08-27T03:25:37.183Z,97899.34
2022-08-27T03:27:40.418Z,97902.84
2022-08-27T03:29:43.369Z,97902.84
2022-08-27T03:31:46.410Z,97901.81
2022-08-27T03:33:49.465Z,97897.53
2022-08-27T03:35:52.448Z,97904.66
2022-08-27T03:37:56.761Z,97904.81
2022-08-27T03:39:59.782Z,97900.34
2022-08-27T03:42:02.817Z,97905.50
2022-08-27T03:44:05.804Z,97904.47
2022-08-27T03:46:09.459Z,97897.53
2022-08-27T03:48:12.982Z,97896.50
2022-08-27T03:50:15.973Z,97895.50
2022-08-27T03:52:19.230Z,97894.69
2022-08-27T03:54:24.975Z,97893.84
2022-08-27T03:56:28.086Z,97888.38
2022-08-27T03:58:31.115Z,97885.72
2022-08-27T04:00:34.160Z,97891.00
2022-08-27T04:02:37.996Z,97885.72
2022-08-27T04:04:40.999Z,97871.78
2022-08-27T04:06:44.094Z,97884.25
2022-08-27T04:08:47.220Z,97886.91
2022-08-27T04:10:52.101Z,97884.59
2022-08-27T04:12:55.233Z,97883.59
2022-08-27T04:14:58.187Z,97887.91
2022-08-27T04:17:02.251Z,97882.75
2022-08-27T04:19:05.243Z,97886.25
2022-08-27T04:21:09.383Z,97890.28
2022-08-27T04:23:12.557Z,97887.97
2022-08-27T04:25:15.639Z,97889.59
2022-08-27T04:27:20.592Z,97888.97
2022-08-27T04:29:23.753Z,97891.63
2022-08-27T04:31:27.364Z,97889.09
2022-08-27T04:33:31.711Z,97894.59
2022-08-27T04:35:34.755Z,97890.66
2022-08-27T04:37:37.731Z,97892.28
2022-08-27T04:39:40.718Z,97896.78
2022-08-27T04:41:43.902Z,97901.28
2022-08-27T04:43:49.165Z,97896.94
2022-08-27T04:45:52.123Z,97900.44
2022-08-27T04:47:55.066Z,97897.78
2022-08-27T04:49:58.225Z,97909.22
2022-08-27T04:52:01.257Z,97903.25
2022-08-27T04:54:05.230Z,97905.91
2022-08-27T04:56:08.420Z,97905.91
2022-08-27T04:58:17.738Z,97905.09
2022-08-27T05:00:22.726Z,97899.97
2022-08-27T05:02:25.982Z,97897.31
2022-08-27T05:04:30.365Z,97905.91
2022-08-27T05:06:34.258Z,97904.91
2022-08-27T05:08:37.243Z,97909.41
2022-08-27T05:10:42.103Z,97905.91
2022-08-27T05:12:45.094Z,97911.22
2022-08-27T05:14:48.120Z,97908.75
2022-08-27T05:16:52.595Z,97906.94
2022-08-27T05:18:55.817Z,97911.22
2022-08-27T05:20:59.977Z,97907.75
2022-08-27T05:23:02.987Z,97899.59
2022-08-27T05:25:06.821Z,97897.94
2022-08-27T05:27:09.917Z,97893.66
2022-08-27T05:29:16.590Z,97904.91
2022-08-27T05:31:21.046Z,97898.63
2022-08-27T05:33:26.511Z,97897.59
2022-08-27T05:35:29.625Z,97896.59
2022-08-27T05:37:33.965Z,97893.94
2022-08-27T05:39:36.947Z,97890.31
2022-08-27T05:41:39.904Z,97891.13
2022-08-27T05:43:49.178Z,97895.63
2022-08-27T05:45:53.575Z,97900.56
2022-08-27T05:47:56.556Z,97896.09
2022-08-27T05:50:03.695Z,97903.91
2022-08-27T05:52:10.831Z,97899.41
2022-08-27T05:54:19.218Z,97901.88
2022-08-27T05:56:24.395Z,97899.88
2022-08-27T05:58:45.034Z,97900.53
2022-08-27T06:01:10.073Z,97903.19
2022-08-27T06:03:13.404Z,97898.88
2022-08-27T06:05:18.054Z,97902.16
2022-08-27T06:07:21.105Z,97900.34
2022-08-27T06:09:28.873Z,97904.00
2022-08-27T06:11:31.965Z,97899.16
2022-08-27T06:13:36.325Z,97898.00
2022-08-27T06:15:41.552Z,97908.59
2022-08-27T06:17:44.620Z,97901.28
2022-08-27T06:19:47.590Z,97908.09
2022-08-27T06:22:01.246Z,97907.09
2022-08-27T06:24:14.116Z,97914.03
2022-08-27T06:26:18.945Z,97914.03
2022-08-27T06:28:23.438Z,97916.50
2022-08-27T06:30:26.583Z,97920.81
2022-08-27T06:32:31.378Z,97925.31
2022-08-27T06:34:34.826Z,97922.66
2022-08-27T06:36:39.235Z,97921.66
2022-08-27T06:38:43.709Z,97930.47
2022-08-27T06:40:47.720Z,97926.78
2022-08-27T06:42:51.403Z,97926.78
2022-08-27T06:44:54.750Z,97928.44
2022-08-27T06:46:57.783Z,97932.75
2022-08-27T06:49:01.916Z,97937.03
2022-08-27T06:51:09.016Z,97932.59
2022-08-27T06:53:12.434Z,97936.88
2022-08-27T06:55:17.017Z,97936.69
2022-08-27T06:57:20.000Z,97931.03
2022-08-27T06:59:23.061Z,97926.56
2022-08-27T07:01:30.447Z,97934.13
2022-08-27T07:03:33.741Z,97930.31
2022-08-27T07:05:38.016Z,97932.78
2022-08-27T07:07:46.735Z,97929.97
2022-08-27T07:09:51.757Z,97930.59
2022-08-27T07:11:57.315Z,97931.63
2022-08-27T07:14:01.036Z,97927.94
2022-08-27T07:16:06.038Z,97934.09
2022-08-27T07:18:09.296Z,97931.44
2022-08-27T07:20:15.756Z,97931.44
2022-08-27T07:22:18.760Z,97931.28
2022-08-27T07:24:21.766Z,97928.44
2022-08-27T07:26:25.003Z,97929.44
2022-08-27T07:28:29.753Z,97932.91
2022-08-27T07:30:32.951Z,97933.06
2022-08-27T07:32:36.020Z,97938.38
2022-08-27T07:34:39.076Z,97950.69
2022-08-27T07:36:42.160Z,97937.56
2022-08-27T07:38:45.349Z,97956.16
2022-08-27T07:40:58.547Z,97951.66
2022-08-27T07:43:19.164Z,97950.69
2022-08-27T07:45:23.805Z,97952.53
2022-08-27T07:47:26.865Z,97950.03
2022-08-27T07:49:31.451Z,97956.97
2022-08-27T07:51:37.446Z,97956.97
2022-08-27T07:53:40.466Z,97948.19
2022-08-27T07:55:43.597Z,97960.50
2022-08-27T07:57:48.022Z,97957.84
2022-08-27T07:59:53.091Z,97956.97
2022-08-27T08:01:58.095Z,97964.78
2022-08-27T08:04:01.243Z,97959.28
2022-08-27T08:06:05.939Z,97965.28
2022-08-27T08:08:09.236Z,97961.59
2022-08-27T08:10:12.761Z,97964.91
2022-08-27T08:12:15.934Z,97970.88
2022-08-27T08:14:22.297Z,97971.31
2022-08-27T08:16:30.970Z,97974.47
2022-08-27T08:18:38.219Z,97969.97
2022-08-27T08:20:57.479Z,97973.28
2022-08-27T08:23:01.755Z,97979.06
2022-08-27T08:25:05.520Z,97971.75
2022-08-27T08:27:08.697Z,97969.72
2022-08-27T08:29:14.705Z,97972.19
2022-08-27T08:31:23.918Z,97981.69
2022-08-27T08:33:27.616Z,97967.38
2022-08-27T08:35:33.217Z,97973.38
2022-08-27T08:37:44.320Z,97979.50
2022-08-27T08:39:47.340Z,97985.25
2022-08-27T08:41:52.694Z,97987.94
2022-08-27T08:43:57.261Z,97987.38
2022-08-27T08:46:06.412Z,97993.19
2022-08-27T08:48:13.090Z,97986.84
2022-08-27T08:50:20.165Z,97991.81
2022-08-27T08:52:32.052Z,97994.28
2022-08-27T08:54:36.044Z,97987.78
2022-08-27T08:56:44.560Z,98001.38
2022-08-27T08:58:51.204Z,97993.56
2022-08-27T09:00:57.983Z,97995.16
2022-08-27T09:03:01.042Z,97995.59
2022-08-27T09:05:06.078Z,97989.91
2022-08-27T09:07:14.255Z,97993.88
2022-08-27T09:09:22.752Z,97993.06
2022-08-27T09:11:30.228Z,97988.38
2022-08-27T09:13:38.107Z,97981.88
2022-08-27T09:15:41.116Z,97981.69
2022-08-27T09:17:45.410Z,97985.97
2022-08-27T09:19:48.433Z,97985.63
2022-08-27T09:22:00.124Z,97991.78
2022-08-27T09:24:07.747Z,97984.44
2022-08-27T09:26:23.982Z,97988.75
2022-08-27T09:28:47.266Z,97991.25
2022-08-27T09:30:50.345Z,97986.72
2022-08-27T09:32:56.781Z,97981.22
2022-08-27T09:35:01.532Z,97991.50
2022-08-27T09:37:08.352Z,97985.63
2022-08-27T09:39:11.430Z,97984.94
2022-08-27T09:41:21.281Z,97992.38
2022-08-27T09:43:28.257Z,97994.13
2022-08-27T09:45:31.917Z,97991.72
2022-08-27T09:47:43.112Z,97993.47
2022-08-27T09:49:47.408Z,98000.69
2022-08-27T09:51:50.670Z,98001.16
2022-08-27T09:53:55.886Z,97997.66
2022-08-27T09:56:00.532Z,97996.75
2022-08-27T09:58:06.473Z,97991.50
2022-08-27T10:00:15.749Z,97992.97
2022-08-27T10:02:21.953Z,97978.44
2022-08-27T10:04:28.032Z,97985.84
2022-08-27T10:06:32.678Z,97983.38
2022-08-27T10:08:39.742Z,97985.13
2022-08-27T10:10:51.207Z,97980.66
2022-08-27T10:12:57.174Z,97979.91
2022-08-27T10:15:02.707Z,97982.91
2022-08-27T10:17:12.758Z,97986.09
2022-08-27T10:19:32.858Z,97979.53
2022-08-27T10:21:42.922Z,97976.25
2022-08-27T10:23:53.654Z,97985.50
2022-08-27T10:26:03.673Z,97986.28
2022-08-27T10:28:20.115Z,97988.84
2022-08-27T10:30:32.783Z,97987.66
2022-08-27T10:32:57.522Z,97991.16
2022-08-27T10:35:09.307Z,97986.19
2022-08-27T10:37:22.769Z,97988.19
2022-08-27T10:39:40.106Z,97984.78
2022-08-27T10:41:45.017Z,97983.91
2022-08-27T10:44:11.551Z,97985.50
2022-08-27T10:46:31.870Z,97976.88
2022-08-27T10:48:38.455Z,97981.94
2022-08-27T10:50:47.762Z,97983.56
2022-08-27T10:52:53.995Z,97979.91
2022-08-27T10:55:01.990Z,97984.03
2022-08-27T10:57:35.354Z,97980.81
2022-08-27T10:59:44.542Z,97985.06
2022-08-27T11:01:53.431Z,97985.50
2022-08-27T11:04:00.738Z,97985.94
2022-08-27T11:06:06.486Z,97984.72
2022-08-27T11:08:13.356Z,97990.56
2022-08-27T11:10:21.046Z,97993.31
2022-08-27T11:12:35.242Z,97993.94
2022-08-27T11:14:43.747Z,97987.81
2022-08-27T11:16:51.630Z,97991.47
2022-08-27T11:18:58.391Z,97985.88
2022-08-27T11:21:05.021Z,97982.84
2022-08-27T11:23:10.410Z,97985.69
2022-08-27T11:25:25.793Z,97984.84
2022-08-27T11:27:32.044Z,97988.19
2022-08-27T11:29:37.533Z,97987.59
2022-08-27T11:31:44.048Z,97990.34
2022-08-27T11:33:55.816Z,97982.16
2022-08-27T11:36:36.932Z,97991.22
2022-08-27T11:38:46.868Z,97994.09
2022-08-27T11:41:00.912Z,97986.91
2022-08-27T11:43:06.603Z,97989.38
2022-08-27T11:45:17.983Z,97982.97
2022-08-27T11:47:23.204Z,97990.34
2022-08-27T11:49:30.000Z,97990.75
2022-08-27T11:51:35.011Z,97990.38
2022-08-27T11:53:42.782Z,97983.03
2022-08-27T11:55:56.543Z,97990.84
2022-08-27T11:58:30.616Z,97998.19
2022-08-27T12:00:38.785Z,97989.75
2022-08-27T12:02:42.076Z,97988.75
2022-08-27T12:04:46.531Z,97985.44
2022-08-27T12:06:53.771Z,97979.66
2022-08-27T12:09:07.855Z,97979.03
2022-08-27T12:11:19.429Z,97973.25
2022-08-27T12:13:27.495Z,97982.53
2022-08-27T12:15:51.673Z,97984.63
2022-08-27T12:17:59.977Z,97989.38
2022-08-27T12:20:12.920Z,97979.34
2022-08-27T12:22:30.220Z,97967.28
2022-08-27T12:24:42.390Z,97972.25
2022-08-27T12:26:57.069Z,97969.56
2022-08-27T12:29:24.117Z,97971.19
2022-08-27T12:31:27.439Z,97973.47
2022-08-27T12:33:34.412Z,97964.28
2022-08-27T12:35:44.294Z,97976.22
2022-08-27T12:37:51.595Z,97978.69
2022-08-27T12:40:01.868Z,97984.22
2022-08-27T12:42:13.572Z,97983.91
2022-08-27T12:44:24.151Z,97981.00
2022-08-27T12:46:29.798Z,97976.09
2022-08-27T12:48:42.560Z,97968.72
2022-08-27T12:50:52.596Z,97969.19
2022-08-27T12:53:24.002Z,97968.81
2022-08-27T12:55:36.694Z,97954.44
2022-08-27T12:57:44.453Z,97971.34
2022-08-27T12:59:58.764Z,97968.50
2022-08-27T13:02:11.047Z,97963.50
2022-08-27T13:04:21.956Z,97965.44
2022-08-27T13:06:31.000Z,97977.00
2022-08-27T13:08:35.747Z,97973.06
2022-08-27T13:10:38.760Z,97980.66
2022-08-27T13:12:41.994Z,97979.66
2022-08-27T13:14:45.897Z,97978.91
2022-08-27T13:17:01.272Z,97972.38
2022-08-27T13:19:06.522Z,97956.63
2022-08-27T13:21:16.085Z,97951.53
2022-08-27T13:23:24.079Z,97958.91
2022-08-27T13:25:30.765Z,97956.66
2022-08-27T13:27:36.764Z,97959.13
2022-08-27T13:29:40.468Z,97963.91
2022-08-27T13:31:43.724Z,97959.50
2022-08-27T13:33:47.163Z,97959.91
2022-08-27T13:35:50.904Z,97959.53
2022-08-27T13:37:57.518Z,97962.63
2022-08-27T13:40:02.246Z,97957.94
2022-08-27T13:42:07.627Z,97952.81
2022-08-27T13:44:12.507Z,97963.91
2022-08-27T13:46:17.917Z,97953.03
2022-08-27T13:48:24.282Z,97955.31
2022-08-27T13:50:29.877Z,97946.53
2022-08-27T13:52:35.472Z,97951.72
2022-08-27T13:54:37.548Z,97948.66
2022-08-27T13:56:57.504Z,97949.28
2022-08-27T13:59:10.189Z,97942.72
2022-08-27T14:01:18.029Z,97945.41
2022-08-27T14:03:26.651Z,97946.41
2022-08-27T14:05:31.923Z,97938.59
2022-08-27T14:07:36.745Z,97950.53
2022-08-27T14:09:48.813Z,97945.81
2022-08-27T14:12:05.340Z,97943.34
2022-08-27T14:14:08.624Z,97948.88
2022-08-27T14:16:17.707Z,97950.16
2022-08-27T14:18:42.261Z,97948.28
2022-08-27T14:20:47.286Z,97946.06
2022-08-27T14:22:50.930Z,97948.75
2022-08-27T14:24:53.958Z,97947.50
2022-08-27T14:27:05.486Z,97940.34
2022-08-27T14:29:12.195Z,97943.00
2022-08-27T14:31:15.976Z,97945.69
2022-08-27T14:33:19.304Z,97944.63
2022-08-27T14:35:24.888Z,97941.78
2022-08-27T14:37:28.744Z,97949.19
2022-08-27T14:39:31.978Z,97942.66
2022-08-27T14:41:35.465Z,97944.63
2022-08-27T14:43:39.770Z,97944.03
2022-08-27T14:45:44.520Z,97945.28
2022-08-27T14:47:49.158Z,97944.09
2022-08-27T14:49:52.184Z,97948.91
2022-08-27T14:51:55.269Z,97946.00
2022-08-27T14:53:58.910Z,97936.56
2022-08-27T14:56:01.943Z,97936.78
2022-08-27T14:58:05.040Z,97938.66
2022-08-27T15:00:11.097Z,97945.66
2022-08-27T15:02:14.961Z,97937.63
2022-08-27T15:04:18.068Z,97943.19
2022-08-27T15:06:22.357Z,97948.56
2022-08-27T15:08:29.381Z,97947.75
2022-08-27T15:10:35.091Z,97942.22
2022-08-27T15:12:38.846Z,97951.28
2022-08-27T15:14:43.267Z,97941.00
2022-08-27T15:16:47.673Z,97939.53
2022-08-27T15:18:53.776Z,97928.66
2022-08-27T15:21:04.127Z,97935.66
2022-08-27T15:23:07.143Z,97931.13
2022-08-27T15:25:11.068Z,97929.25
2022-08-27T15:27:14.421Z,97937.47
2022-08-27T15:29:17.756Z,97935.84
2022-08-27T15:31:21.307Z,97934.59
2022-08-27T15:33:25.908Z,97926.56
2022-08-27T15:35:28.956Z,97927.38
2022-08-27T15:37:32.704Z,97923.91
2022-08-27T15:39:35.704Z,97920.16
2022-08-27T15:42:03.005Z,97912.75
2022-08-27T15:44:03.856Z,97914.28
2022-08-27T15:46:07.362Z,97906.03
2022-08-27T15:48:11.343Z,97905.59
2022-08-27T15:50:16.014Z,97906.38
2022-08-27T15:52:21.429Z,97910.03
2022-08-27T15:54:25.204Z,97907.50
2022-08-27T15:56:32.523Z,97908.72
2022-08-27T15:58:38.564Z,97902.38
2022-08-27T16:00:43.199Z,97909.16
2022-08-27T16:02:47.345Z,97901.94
2022-08-27T16:04:51.152Z,97912.84
2022-08-27T16:06:55.961Z,97916.59
2022-08-27T16:08:59.003Z,97912.88
2022-08-27T16:11:02.139Z,97912.31
2022-08-27T16:13:05.651Z,97917.50
2022-08-27T16:15:09.577Z,97915.47
2022-08-27T16:17:13.459Z,97916.53
2022-08-27T16:19:16.903Z,97919.00
2022-08-27T16:21:20.001Z,97927.25
2022-08-27T16:23:26.100Z,97920.53
2022-08-27T16:25:29.457Z,97929.16
2022-08-27T16:27:33.292Z,97923.63
2022-08-27T16:29:36.638Z,97921.56
2022-08-27T16:31:39.690Z,97917.69
2022-08-27T16:33:43.685Z,97914.00
2022-08-27T16:35:46.779Z,97914.81
2022-08-27T16:37:49.978Z,97919.75
2022-08-27T16:39:54.410Z,97915.03
2022-08-27T16:41:57.446Z,97912.75
2022-08-27T16:44:00.643Z,97913.16
2022-08-27T16:46:03.725Z,97914.19
2022-08-27T16:48:24.399Z,97921.56
2022-08-27T16:50:36.800Z,97918.25
2022-08-27T16:52:39.796Z,97920.41
2022-08-27T16:54:43.022Z,97920.41
2022-08-27T16:56:47.397Z,97915.84
2022-08-27T16:58:51.543Z,97920.31
2022-08-27T17:00:56.506Z,97919.25
2022-08-27T17:02:59.543Z,97922.72
2022-08-27T17:05:33.451Z,97918.97
2022-08-27T17:07:25.827Z,97923.84
2022-08-27T17:09:29.199Z,97919.28
2022-08-27T17:11:32.846Z,97923.69
2022-08-27T17:13:39.550Z,97919.94
2022-08-27T17:15:42.868Z,97915.41
2022-08-27T17:17:46.428Z,97917.44
2022-08-27T17:19:49.430Z,97934.66
2022-08-27T17:21:54.686Z,97933.19
2022-08-27T17:23:59.415Z,97935.81
2022-08-27T17:26:03.042Z,97931.88
2022-08-27T17:28:06.343Z,97934.91
2022-08-27T17:30:12.161Z,97944.13
2022-08-27T17:32:15.199Z,97949.63
2022-08-27T17:34:21.806Z,97950.00
2022-08-27T17:36:24.959Z,97947.91
2022-08-27T17:38:32.685Z,97952.44
2022-08-27T17:40:35.848Z,97959.63
2022-08-27T17:42:38.887Z,97952.00
2022-08-27T17:44:41.914Z,97957.53
2022-08-27T17:46:46.307Z,97950.72
2022-08-27T17:48:49.282Z,97961.38
2022-08-27T17:50:52.264Z,97955.22
2022-08-27T17:52:55.460Z,97959.28
2022-08-27T17:54:59.782Z,97959.66
2022-08-27T17:57:04.999Z,97956.38
2022-08-27T17:59:08.899Z,97957.38
2022-08-27T18:01:12.023Z,97961.25
2022-08-27T18:03:18.272Z,97963.41
2022-08-27T18:05:23.779Z,97964.84
2022-08-27T18:07:27.250Z,97967.88
2022-08-27T18:09:30.300Z,97967.41
2022-08-27T18:11:33.619Z,97968.63
2022-08-27T18:13:37.245Z,97978.63
2022-08-27T18:15:42.019Z,97972.66
2022-08-27T18:17:45.125Z,97973.03
2022-08-27T18:19:50.696Z,97979.72
2022-08-27T18:21:54.373Z,97973.97
2022-08-27T18:23:57.375Z,97984.16
2022-08-27T18:26:00.418Z,97986.38
2022-08-27T18:28:07.111Z,97979.59
2022-08-27T18:30:11.857Z,97978.09
2022-08-27T18:32:14.854Z,97975.00
2022-08-27T18:34:20.927Z,97975.38
2022-08-27T18:36:25.812Z,97980.88
2022-08-27T18:38:28.790Z,97992.72
2022-08-27T18:40:36.184Z,97979.78
2022-08-27T18:42:40.999Z,97987.94
2022-08-27T18:44:45.676Z,97990.16
2022-08-27T18:46:48.698Z,97987.88
2022-08-27T18:48:51.718Z,97988.22
2022-08-27T18:50:58.474Z,97991.06
2022-08-27T18:53:03.859Z,97998.63
2022-08-27T18:55:09.066Z,98003.63
2022-08-27T18:57:13.110Z,98007.47
2022-08-27T18:59:16.209Z,98011.13
2022-08-27T19:01:23.902Z,98016.00
2022-08-27T19:03:29.379Z,98020.69
2022-08-27T19:05:32.494Z,98021.06
2022-08-27T19:07:36.087Z,98023.91
2022-08-27T19:09:40.546Z,98026.91
2022-08-27T19:11:43.682Z,98021.78
2022-08-27T19:13:50.568Z,98023.78
2022-08-27T19:15:56.821Z,98025.16
2022-08-27T19:18:02.916Z,98028.34
2022-08-27T19:20:07.238Z,98028.53
2022-08-27T19:22:10.317Z,98029.53
2022-08-27T19:24:13.294Z,98033.75
2022-08-27T19:26:20.551Z,98032.28
2022-08-27T19:28:26.200Z,98045.56
2022-08-27T19:30:29.242Z,98043.91
2022-08-27T19:32:34.688Z,98044.75
2022-08-27T19:34:37.874Z,98041.78
2022-08-27T19:36:42.649Z,98042.16
2022-08-27T19:38:46.527Z,98048.66
2022-08-27T19:40:49.710Z,98050.03
2022-08-27T19:42:54.093Z,98047.34
2022-08-27T19:44:57.256Z,98042.41
2022-08-27T19:47:00.576Z,98046.41
2022-08-27T19:49:03.922Z,98052.06
2022-08-27T19:51:07.228Z,98051.63
2022-08-27T19:53:10.339Z,98050.81
2022-08-27T19:55:16.420Z,98050.16
2022-08-27T19:57:19.696Z,98047.28
2022-08-27T19:59:24.107Z,98052.44
2022-08-27T20:01:27.369Z,98046.31
2022-08-27T20:03:30.426Z,98052.44
2022-08-27T20:05:33.486Z,98043.47
2022-08-27T20:07:36.634Z,98052.25
2022-08-27T20:09:40.669Z,98054.09
2022-08-27T20:11:45.835Z,98054.09
2022-08-27T20:13:50.817Z,98049.59
2022-08-27T20:15:55.449Z,98058.25
2022-08-27T20:18:00.011Z,98053.75
2022-08-27T20:20:03.084Z,98056.41
2022-08-27T20:22:06.825Z,98050.28
2022-08-27T20:24:10.131Z,98050.44
2022-08-27T20:26:13.125Z,98053.91
2022-08-27T20:28:38.327Z,98049.78
2022-08-27T20:30:40.089Z,98053.78
2022-08-27T20:32:47.590Z,98050.47
2022-08-27T20:34:51.466Z,98049.81
2022-08-27T20:36:54.833Z,98052.81
2022-08-27T20:38:58.077Z,98048.53
2022-08-27T20:41:01.430Z,98043.56
2022-08-27T20:43:04.511Z,98045.38
2022-08-27T20:45:12.198Z,98052.53
2022-08-27T20:47:17.151Z,98049.25
2022-08-27T20:49:22.060Z,98047.56
2022-08-27T20:51:25.681Z,98049.41
2022-08-27T20:53:28.824Z,98053.41
2022-08-27T20:55:31.885Z,98049.25
2022-08-27T20:57:34.903Z,98049.44
2022-08-27T20:59:57.942Z,98042.50
2022-08-27T21:02:06.088Z,98047.13
2022-08-27T21:04:09.208Z,98048.34
2022-08-27T21:06:13.834Z,98049.50
2022-08-27T21:08:19.266Z,98048.69
2022-08-27T21:10:22.574Z,98052.34
2022-08-27T21:12:26.418Z,98053.31
2022-08-27T21:14:29.533Z,98048.00
2022-08-27T21:16:33.187Z,98049.03
2022-08-27T21:18:36.431Z,98059.66
2022-08-27T21:20:39.691Z,98049.22
2022-08-27T21:22:45.108Z,98060.66
2022-08-27T21:24:48.454Z,98062.50
2022-08-27T21:26:51.530Z,98061.47
2022-08-27T21:28:55.588Z,98060.81
2022-08-27T21:30:59.132Z,98059.38
2022-08-27T21:33:02.268Z,98064.84
2022-08-27T21:35:06.229Z,98064.19
2022-08-27T21:37:11.078Z,98069.50
2022-08-27T21:39:15.490Z,98072.31
2022-08-27T21:41:18.659Z,98070.69
2022-08-27T21:43:21.880Z,98064.69
2022-08-27T21:45:25.030Z,98069.38
2022-08-27T21:47:29.402Z,98060.75
2022-08-27T21:49:33.247Z,98061.09
2022-08-27T21:51:36.251Z,98067.56
2022-08-27T21:53:39.285Z,98068.75
2022-08-27T21:55:44.134Z,98073.41
2022-08-27T21:57:47.263Z,98070.28
2022-08-27T21:59:51.475Z,98068.63
2022-08-27T22:02:00.480Z,98078.25
2022-08-27T22:04:04.751Z,98084.38
2022-08-27T22:06:12.255Z,98069.44
2022-08-27T22:08:17.843Z,98079.88
2022-08-27T22:10:21.316Z,98076.06
2022-08-27T22:12:25.671Z,98079.88
2022-08-27T22:14:29.072Z,98078.59
2022-08-27T22:16:32.143Z,98085.06
2022-08-27T22:18:35.211Z,98076.44
2022-08-27T22:20:42.369Z,98087.06
2022-08-27T22:22:45.532Z,98071.31
2022-08-27T22:24:48.575Z,98080.09
2022-08-27T22:26:51.629Z,98077.44
2022-08-27T22:28:56.036Z,98081.75
2022-08-27T22:30:59.388Z,98076.44
2022-08-27T22:33:02.490Z,98078.94
2022-08-27T22:35:06.197Z,98077.75
2022-08-27T22:37:09.278Z,98077.09
2022-08-27T22:39:12.353Z,98076.28
2022-08-27T22:41:16.536Z,98077.44
2022-08-27T22:43:21.707Z,98080.09
2022-08-27T22:45:27.048Z,98072.44
2022-08-27T22:47:30.076Z,98077.91
2022-08-27T22:49:35.824Z,98078.09
2022-08-27T22:51:38.895Z,98076.13
2022-08-27T22:53:41.972Z,98074.97
2022-08-27T22:55:49.952Z,98068.84
2022-08-27T22:57:55.174Z,98066.34
2022-08-27T22:59:58.531Z,98067.50
2022-08-27T23:02:04.476Z,98064.84
2022-08-27T23:04:07.840Z,98068.50
2022-08-27T23:06:11.079Z,98063.53
2022-08-27T23:08:15.140Z,98070.03
2022-08-27T23:10:20.401Z,98074.00
2022-08-27T23:12:26.046Z,98071.88
2022-08-27T23:14:34.203Z,98071.22
2022-08-27T23:16:37.240Z,98063.59
2022-08-27T23:18:41.860Z,98067.41
2022-08-27T23:20:45.195Z,98074.72
2022-08-27T23:22:48.603Z,98069.75
2022-08-27T23:25:10.680Z,98073.56
2022-08-27T23:27:32.182Z,98076.38
2022-08-27T23:29:35.844Z,98075.75
2022-08-27T23:31:38.998Z,98079.38
2022-08-27T23:33:43.593Z,98073.25
2022-08-27T23:35:48.252Z,98065.63
2022-08-27T23:37:51.615Z,98060.66
2022-08-27T23:39:55.191Z,98062.69
2022-08-27T23:41:58.176Z,98073.28
2022-08-27T23:44:01.890Z,98066.31
2022-08-27T23:46:05.184Z,98066.66
2022-08-27T23:48:08.228Z,98063.34
2022-08-27T23:50:13.007Z,98064.66
2022-08-27T23:52:16.279Z,98065.66
2022-08-27T23:54:19.295Z,98067.50
2022-08-27T23:56:22.285Z,98069.50
2022-08-27T23:58:33.823Z,98067.00
